createdAt,value
2018-07-09T00:01:06.105Z,52.02
2018-07-09T00:03:33.746Z,51.07
2018-07-09T00:06:01.698Z,51.77
2018-07-09T00:08:29.408Z,52.32
2018-07-09T00:11:06.073Z,52.70
2018-07-09T00:13:34.831Z,52.75
2018-07-09T00:16:02.754Z,53.01
2018-07-09T00:18:30.536Z,53.45
2018-07-09T00:20:58.246Z,53.52
2018-07-09T00:23:26.014Z,54.59
2018-07-09T00:25:54.474Z,55.19
2018-07-09T00:28:22.630Z,55.15
2018-07-09T00:30:50.367Z,55.00
2018-07-09T00:33:18.651Z,55.05
2018-07-09T00:35:46.847Z,56.20
2018-07-09T00:38:14.662Z,55.98
2018-07-09T00:40:42.410Z,54.76
2018-07-09T00:43:10.167Z,54.62
2018-07-09T00:45:37.850Z,55.42
2018-07-09T00:48:05.703Z,55.38
2018-07-09T00:50:34.250Z,55.63
2018-07-09T00:53:01.958Z,54.41
2018-07-09T00:55:30.313Z,54.75
2018-07-09T00:57:58.023Z,54.86
2018-07-09T01:00:25.692Z,55.06
2018-07-09T01:02:53.478Z,55.44
2018-07-09T01:05:21.199Z,54.47
2018-07-09T01:07:48.939Z,55.75
2018-07-09T01:10:17.593Z,55.79
2018-07-09T01:12:45.314Z,55.68
2018-07-09T01:15:13.434Z,55.29
2018-07-09T01:17:41.146Z,55.28
2018-07-09T01:20:08.859Z,54.45
2018-07-09T01:22:36.646Z,54.93
2018-07-09T01:25:04.500Z,55.79
2018-07-09T01:27:32.292Z,56.44
2018-07-09T01:30:05.968Z,56.29
2018-07-09T01:32:33.813Z,56.27
2018-07-09T01:35:01.533Z,56.62
2018-07-09T01:37:29.430Z,55.27
2018-07-09T01:39:57.148Z,55.56
2018-07-09T01:42:25.418Z,55.85
2018-07-09T01:44:53.085Z,55.70
2018-07-09T01:47:20.854Z,55.78
2018-07-09T01:49:48.630Z,55.90
2018-07-09T01:52:16.789Z,55.89
2018-07-09T01:54:44.586Z,56.13
2018-07-09T01:57:12.258Z,56.12
2018-07-09T01:59:39.965Z,55.18
2018-07-09T02:02:08.633Z,55.60
2018-07-09T02:04:36.397Z,55.60
2018-07-09T02:07:04.326Z,55.23
2018-07-09T02:09:32.041Z,55.45
2018-07-09T02:11:59.783Z,55.32
2018-07-09T02:14:27.482Z,56.20
2018-07-09T02:16:55.154Z,56.66
2018-07-09T02:19:22.827Z,57.01
2018-07-09T02:21:50.502Z,57.19
2018-07-09T02:24:18.758Z,57.01
2018-07-09T02:26:46.459Z,56.16
2018-07-09T02:29:14.198Z,56.20
2018-07-09T02:31:41.899Z,56.64
2018-07-09T02:34:09.593Z,56.62
2018-07-09T02:36:37.283Z,57.59
2018-07-09T02:39:05.671Z,57.66
2018-07-09T02:41:33.424Z,57.91
2018-07-09T02:44:01.151Z,57.60
2018-07-09T02:46:28.833Z,57.44
2018-07-09T02:48:56.523Z,57.36
2018-07-09T02:51:24.638Z,57.49
2018-07-09T02:53:52.786Z,57.69
2018-07-09T02:56:20.464Z,57.84
2018-07-09T02:58:48.246Z,58.05
2018-07-09T03:01:16.056Z,57.75
2018-07-09T03:03:43.623Z,57.85
2018-07-09T03:06:11.339Z,57.51
2018-07-09T03:08:39.022Z,57.80
2018-07-09T03:11:06.738Z,57.86
2018-07-09T03:13:34.511Z,57.75
2018-07-09T03:16:02.228Z,57.76
2018-07-09T03:18:29.940Z,57.63
2018-07-09T03:20:57.632Z,58.44
2018-07-09T03:23:25.387Z,59.09
2018-07-09T03:25:53.474Z,58.90
2018-07-09T03:28:21.128Z,59.30
2018-07-09T03:30:49.152Z,59.48
2018-07-09T03:33:16.890Z,60.05
2018-07-09T03:35:45.283Z,60.61
2018-07-09T03:38:13.017Z,60.92
2018-07-09T03:40:40.762Z,60.79
2018-07-09T03:43:08.531Z,60.78
2018-07-09T03:45:36.249Z,60.94
2018-07-09T03:48:04.142Z,60.47
2018-07-09T03:50:32.170Z,60.42
2018-07-09T03:52:59.887Z,60.17
2018-07-09T03:55:27.622Z,59.88
2018-07-09T03:57:55.311Z,59.99
2018-07-09T04:00:23.109Z,59.76
2018-07-09T04:02:50.832Z,59.92
2018-07-09T04:05:18.560Z,59.71
2018-07-09T04:07:46.347Z,59.09
2018-07-09T04:10:14.178Z,59.24
2018-07-09T04:12:41.874Z,59.14
2018-07-09T04:15:09.621Z,59.34
2018-07-09T04:17:37.379Z,59.04
2018-07-09T04:20:05.112Z,58.73
2018-07-09T04:22:32.802Z,59.21
2018-07-09T04:25:00.486Z,58.55
2018-07-09T04:27:28.174Z,58.41
2018-07-09T04:29:55.837Z,58.09
2018-07-09T04:32:23.533Z,57.56
2018-07-09T04:34:51.225Z,56.43
2018-07-09T04:37:18.941Z,57.61
2018-07-09T04:39:46.630Z,56.50
2018-07-09T04:42:14.290Z,56.76
2018-07-09T04:44:42.247Z,56.66
2018-07-09T04:47:10.826Z,56.84
2018-07-09T04:49:38.472Z,55.58
2018-07-09T04:52:06.243Z,55.28
2018-07-09T04:54:33.942Z,54.86
2018-07-09T04:57:02.903Z,53.75
2018-07-09T04:59:30.601Z,53.24
2018-07-09T05:01:58.291Z,52.66
2018-07-09T05:04:26.182Z,52.28
2018-07-09T05:06:53.928Z,52.10
2018-07-09T05:09:21.584Z,51.38
2018-07-09T05:11:49.516Z,50.15
2018-07-09T05:14:17.186Z,49.86
2018-07-09T05:16:44.838Z,49.09
2018-07-09T05:19:12.519Z,48.82
2018-07-09T05:21:40.242Z,48.06
2018-07-09T05:24:07.907Z,47.51
2018-07-09T05:26:36.021Z,47.43
2018-07-09T05:29:03.885Z,47.83
2018-07-09T05:31:31.586Z,47.76
2018-07-09T05:33:59.475Z,48.21
2018-07-09T05:36:27.139Z,48.52
2018-07-09T05:38:55.300Z,47.99
2018-07-09T05:41:23.105Z,45.98
2018-07-09T05:43:50.978Z,46.13
2018-07-09T05:46:18.703Z,45.79
2018-07-09T05:48:46.497Z,44.50
2018-07-09T05:51:14.219Z,44.08
2018-07-09T05:53:41.943Z,43.84
2018-07-09T05:56:09.634Z,42.40
2018-07-09T05:58:37.389Z,41.90
2018-07-09T06:01:05.101Z,41.19
2018-07-09T06:03:32.854Z,40.69
2018-07-09T06:06:00.591Z,40.08
2018-07-09T06:08:28.302Z,39.80
2018-07-09T06:10:56.018Z,39.64
2018-07-09T06:13:23.718Z,38.23
2018-07-09T06:15:51.467Z,36.02
2018-07-09T06:18:19.950Z,37.19
2018-07-09T06:20:47.655Z,36.66
2018-07-09T06:23:15.462Z,36.93
2018-07-09T06:25:43.151Z,37.27
2018-07-09T06:28:10.867Z,36.86
2018-07-09T06:30:38.596Z,37.97
2018-07-09T06:33:06.640Z,37.24
2018-07-09T06:35:34.308Z,34.71
2018-07-09T06:38:02.098Z,33.52
2018-07-09T06:40:29.791Z,33.22
2018-07-09T06:42:57.516Z,34.08
2018-07-09T06:45:25.198Z,32.88
2018-07-09T06:47:52.898Z,31.57
2018-07-09T06:50:20.586Z,31.44
2018-07-09T06:52:48.310Z,30.55
2018-07-09T06:55:16.004Z,30.00
2018-07-09T06:57:43.715Z,29.90
2018-07-09T07:00:11.451Z,30.25
2018-07-09T07:02:39.256Z,29.38
2018-07-09T07:05:07.046Z,29.99
2018-07-09T07:07:34.777Z,30.10
2018-07-09T07:10:02.551Z,29.59
2018-07-09T07:12:30.287Z,28.52
2018-07-09T07:14:57.999Z,28.45
2018-07-09T07:17:25.693Z,26.86
2018-07-09T07:19:53.483Z,27.69
2018-07-09T07:22:21.259Z,26.38
2018-07-09T07:24:48.975Z,27.04
2018-07-09T07:27:16.733Z,26.66
2018-07-09T07:29:44.583Z,25.98
2018-07-09T07:32:12.575Z,25.05
2018-07-09T07:34:40.302Z,24.73
2018-07-09T07:37:08.065Z,24.87
2018-07-09T07:39:35.777Z,24.81
2018-07-09T07:42:03.511Z,24.24
2018-07-09T07:44:31.248Z,23.34
2018-07-09T07:46:58.943Z,24.11
2018-07-09T07:49:26.672Z,23.47
2018-07-09T07:51:54.927Z,23.12
2018-07-09T07:54:22.948Z,22.25
2018-07-09T07:56:50.620Z,22.85
2018-07-09T07:59:18.359Z,23.25
2018-07-09T08:01:46.053Z,22.72
2018-07-09T08:04:13.751Z,22.69
2018-07-09T08:06:41.482Z,21.93
2018-07-09T08:09:09.166Z,22.15
2018-07-09T08:11:48.562Z,22.11
2018-07-09T08:14:04.823Z,23.03
2018-07-09T08:16:32.522Z,22.29
2018-07-09T08:19:00.251Z,21.87
2018-07-09T08:21:27.946Z,20.01
2018-07-09T08:23:55.671Z,19.41
2018-07-09T08:26:23.396Z,19.93
2018-07-09T08:28:51.289Z,19.35
2018-07-09T08:31:19.056Z,20.14
2018-07-09T08:33:46.744Z,20.17
2018-07-09T08:36:14.466Z,20.82
2018-07-09T08:38:42.178Z,20.31
2018-07-09T08:41:09.906Z,19.62
2018-07-09T08:43:37.582Z,19.54
2018-07-09T08:46:05.334Z,19.73
2018-07-09T08:48:33.050Z,18.76
2018-07-09T08:51:00.730Z,17.87
2018-07-09T08:53:28.475Z,17.67
2018-07-09T08:55:56.198Z,17.15
2018-07-09T08:58:23.922Z,19.35
2018-07-09T09:00:51.715Z,18.27
2018-07-09T09:03:19.395Z,18.98
2018-07-09T09:05:47.071Z,18.63
2018-07-09T09:08:14.816Z,19.14
2018-07-09T09:10:42.580Z,18.42
2018-07-09T09:13:10.300Z,17.50
2018-07-09T09:15:37.982Z,17.32
2018-07-09T09:18:05.771Z,16.96
2018-07-09T09:20:33.466Z,19.02
2018-07-09T09:23:01.259Z,18.52
2018-07-09T09:25:29.053Z,18.56
2018-07-09T09:27:56.758Z,17.24
2018-07-09T09:30:24.412Z,17.92
2018-07-09T09:32:52.147Z,17.92
2018-07-09T09:35:19.815Z,15.98
2018-07-09T09:37:47.575Z,17.03
2018-07-09T09:40:15.303Z,17.18
2018-07-09T09:42:43.042Z,17.20
2018-07-09T09:45:10.802Z,18.65
2018-07-09T09:47:38.516Z,18.43
2018-07-09T09:50:06.278Z,17.65
2018-07-09T09:52:34.488Z,15.85
2018-07-09T09:55:02.232Z,16.61
2018-07-09T09:57:29.935Z,16.77
2018-07-09T09:59:57.631Z,17.89
2018-07-09T10:02:25.350Z,16.85
2018-07-09T10:04:53.066Z,16.66
2018-07-09T10:07:20.798Z,17.98
2018-07-09T10:09:48.799Z,17.20
2018-07-09T10:12:16.487Z,16.65
2018-07-09T10:14:44.202Z,15.77
2018-07-09T10:17:11.915Z,15.46
2018-07-09T10:19:40.890Z,16.30
2018-07-09T10:22:08.643Z,14.29
2018-07-09T10:24:36.355Z,15.62
2018-07-09T10:27:04.163Z,17.20
2018-07-09T10:29:31.845Z,15.75
2018-07-09T10:31:59.558Z,14.35
2018-07-09T10:34:27.277Z,14.63
2018-07-09T10:36:54.993Z,15.61
2018-07-09T10:39:22.708Z,15.41
2018-07-09T10:41:50.428Z,15.75
2018-07-09T10:44:18.150Z,14.76
2018-07-09T10:46:45.826Z,15.71
2018-07-09T10:49:13.540Z,16.28
2018-07-09T10:51:41.264Z,15.98
2018-07-09T10:54:09.230Z,14.86
2018-07-09T10:56:36.967Z,15.39
2018-07-09T10:59:04.659Z,13.90
2018-07-09T11:01:32.410Z,15.47
2018-07-09T11:04:00.146Z,15.26
2018-07-09T11:06:28.100Z,14.38
2018-07-09T11:08:55.791Z,15.61
2018-07-09T11:11:23.489Z,16.11
2018-07-09T11:13:51.661Z,15.21
2018-07-09T11:16:19.409Z,17.00
2018-07-09T11:18:47.157Z,16.57
2018-07-09T11:21:15.115Z,17.25
2018-07-09T11:23:42.812Z,15.72
2018-07-09T11:26:10.522Z,16.25
2018-07-09T11:28:38.281Z,18.78
2018-07-09T11:31:05.944Z,17.28
2018-07-09T11:33:33.681Z,17.09
2018-07-09T11:36:01.435Z,17.22
2018-07-09T11:38:29.106Z,17.16
2018-07-09T11:40:56.858Z,17.88
2018-07-09T11:43:24.561Z,17.66
2018-07-09T11:45:52.292Z,19.51
2018-07-09T11:48:19.962Z,19.55
2018-07-09T11:50:57.864Z,19.20
2018-07-09T11:53:25.554Z,19.41
2018-07-09T11:55:53.246Z,21.32
2018-07-09T11:58:21.172Z,20.25
2018-07-09T12:00:48.868Z,20.19
2018-07-09T12:03:16.594Z,20.59
2018-07-09T12:05:44.261Z,21.29
2018-07-09T12:08:11.942Z,21.10
2018-07-09T12:10:39.646Z,21.23
2018-07-09T12:13:07.561Z,21.01
2018-07-09T12:15:35.231Z,20.34
2018-07-09T12:18:02.903Z,20.10
2018-07-09T12:20:30.928Z,20.44
2018-07-09T12:22:58.656Z,20.14
2018-07-09T12:25:26.355Z,21.14
2018-07-09T12:27:54.128Z,22.35
2018-07-09T12:30:21.855Z,21.80
2018-07-09T12:32:49.567Z,22.21
2018-07-09T12:35:17.244Z,22.02
2018-07-09T12:37:44.964Z,21.66
2018-07-09T12:40:12.643Z,21.44
2018-07-09T12:42:40.414Z,21.68
2018-07-09T12:45:08.103Z,21.97
2018-07-09T12:47:35.843Z,21.39
2018-07-09T12:50:03.544Z,22.63
2018-07-09T12:52:31.311Z,22.48
2018-07-09T12:54:58.971Z,23.58
2018-07-09T12:57:26.652Z,22.34
2018-07-09T12:59:54.359Z,23.58
2018-07-09T13:02:22.054Z,24.40
2018-07-09T13:04:49.775Z,24.24
2018-07-09T13:07:17.435Z,24.43
2018-07-09T13:09:45.151Z,23.17
2018-07-09T13:12:17.527Z,26.72
2018-07-09T13:14:45.238Z,25.54
2018-07-09T13:17:12.947Z,26.50
2018-07-09T13:19:40.735Z,27.20
2018-07-09T13:22:08.454Z,27.26
2018-07-09T13:24:36.073Z,26.83
2018-07-09T13:27:03.798Z,25.23
2018-07-09T13:29:31.822Z,24.38
2018-07-09T13:31:59.583Z,24.40
2018-07-09T13:34:27.380Z,24.30
2018-07-09T13:36:55.183Z,26.72
2018-07-09T13:39:22.878Z,26.72
2018-07-09T13:41:50.538Z,26.90
2018-07-09T13:44:18.323Z,26.51
2018-07-09T13:46:46.086Z,26.58
2018-07-09T13:49:13.815Z,26.46
2018-07-09T13:51:41.533Z,26.00
2018-07-09T13:54:09.216Z,25.80
2018-07-09T13:56:36.906Z,26.37
2018-07-09T13:59:04.706Z,27.50
2018-07-09T14:01:32.409Z,27.24
2018-07-09T14:04:00.133Z,26.24
2018-07-09T14:06:27.825Z,27.29
2018-07-09T14:08:55.563Z,27.05
2018-07-09T14:11:23.319Z,27.62
2018-07-09T14:13:51.086Z,26.98
2018-07-09T14:16:18.755Z,28.27
2018-07-09T14:18:46.452Z,28.45
2018-07-09T14:21:15.606Z,28.53
2018-07-09T14:23:44.121Z,28.84
2018-07-09T14:26:13.395Z,28.43
2018-07-09T14:28:41.118Z,28.98
2018-07-09T14:31:08.854Z,27.55
2018-07-09T14:33:36.486Z,28.10
2018-07-09T14:36:04.482Z,28.24
2018-07-09T14:38:32.151Z,29.35
2018-07-09T14:40:59.885Z,29.47
2018-07-09T14:43:27.581Z,29.87
2018-07-09T14:45:55.230Z,28.98
2018-07-09T14:48:22.951Z,29.28
2018-07-09T14:50:50.631Z,28.87
2018-07-09T14:53:18.284Z,29.33
2018-07-09T14:55:45.969Z,29.39
2018-07-09T14:58:13.655Z,29.81
2018-07-09T15:00:43.218Z,29.29
2018-07-09T15:03:10.940Z,29.03
2018-07-09T15:05:38.591Z,28.59
2018-07-09T15:08:06.282Z,29.16
2018-07-09T15:10:33.912Z,28.59
2018-07-09T15:13:01.621Z,28.78
2018-07-09T15:15:29.281Z,29.30
2018-07-09T15:17:56.978Z,28.88
2018-07-09T15:20:24.630Z,28.85
2018-07-09T15:22:52.397Z,29.48
2018-07-09T15:25:20.112Z,30.42
2018-07-09T15:27:47.739Z,29.73
2018-07-09T15:30:15.388Z,29.93
2018-07-09T15:32:43.079Z,29.96
2018-07-09T15:35:12.554Z,30.18
2018-07-09T15:37:40.210Z,29.38
2018-07-09T15:40:07.878Z,30.05
2018-07-09T15:42:35.689Z,30.13
2018-07-09T15:45:03.457Z,30.27
2018-07-09T15:47:33.691Z,30.29
2018-07-09T15:50:01.333Z,29.50
2018-07-09T15:52:28.961Z,29.39
2018-07-09T15:54:56.626Z,30.39
2018-07-09T15:57:24.285Z,29.89
2018-07-09T15:59:51.933Z,30.58
2018-07-09T16:02:20.218Z,31.17
2018-07-09T16:04:47.950Z,31.88
2018-07-09T16:07:15.597Z,31.18
2018-07-09T16:09:43.279Z,32.01
2018-07-09T16:12:10.916Z,32.11
2018-07-09T16:14:38.608Z,30.75
2018-07-09T16:17:06.363Z,31.00
2018-07-09T16:19:34.034Z,31.13
2018-07-09T16:22:01.747Z,31.34
2018-07-09T16:24:29.438Z,30.89
2018-07-09T16:26:57.192Z,31.91
2018-07-09T16:29:25.054Z,31.84
2018-07-09T16:31:52.525Z,31.00
2018-07-09T16:34:20.167Z,31.85
2018-07-09T16:36:47.794Z,31.76
2018-07-09T16:39:15.398Z,30.64
2018-07-09T16:41:43.062Z,31.67
2018-07-09T16:44:10.761Z,31.22
2018-07-09T16:46:38.460Z,30.79
2018-07-09T16:49:06.107Z,30.29
2018-07-09T16:51:33.826Z,30.64
2018-07-09T16:54:01.503Z,31.06
2018-07-09T16:56:29.190Z,30.96
2018-07-09T16:58:56.851Z,31.67
2018-07-09T17:01:24.518Z,31.79
2018-07-09T17:03:53.014Z,31.42
2018-07-09T17:06:20.680Z,31.55
2018-07-09T17:08:49.776Z,32.06
2018-07-09T17:11:17.415Z,31.75
2018-07-09T17:13:45.377Z,31.84
2018-07-09T17:16:13.208Z,31.92
2018-07-09T17:18:40.892Z,31.31
2018-07-09T17:21:08.547Z,31.96
2018-07-09T17:23:36.182Z,32.92
2018-07-09T17:26:04.480Z,32.73
2018-07-09T17:28:32.106Z,33.16
2018-07-09T17:30:59.926Z,32.15
2018-07-09T17:33:27.643Z,32.18
2018-07-09T17:35:55.294Z,32.50
2018-07-09T17:38:22.981Z,31.82
2018-07-09T17:40:50.644Z,32.13
2018-07-09T17:43:18.666Z,32.34
2018-07-09T17:45:47.748Z,32.88
2018-07-09T17:48:16.458Z,32.75
2018-07-09T17:50:44.195Z,33.74
2018-07-09T17:53:11.865Z,34.00
2018-07-09T17:55:39.541Z,34.24
2018-07-09T17:58:07.254Z,34.13
2018-07-09T18:00:36.466Z,34.55
2018-07-09T18:03:04.208Z,34.51
2018-07-09T18:05:31.888Z,34.64
2018-07-09T18:07:59.555Z,34.81
2018-07-09T18:10:27.277Z,35.05
2018-07-09T18:12:55.126Z,35.33
2018-07-09T18:15:22.766Z,35.58
2018-07-09T18:17:50.441Z,35.06
2018-07-09T18:20:18.522Z,35.42
2018-07-09T18:22:46.187Z,35.93
2018-07-09T18:25:13.926Z,35.67
2018-07-09T18:27:41.692Z,36.09
2018-07-09T18:30:09.336Z,36.62
2018-07-09T18:32:37.038Z,35.92
2018-07-09T18:35:04.741Z,35.80
2018-07-09T18:37:32.617Z,36.15
2018-07-09T18:40:00.301Z,37.15
2018-07-09T18:42:27.962Z,36.71
2018-07-09T18:44:55.640Z,37.26
2018-07-09T18:47:23.338Z,36.85
2018-07-09T18:49:51.022Z,37.27
2018-07-09T18:52:18.691Z,37.18
2018-07-09T18:54:46.411Z,37.03
2018-07-09T18:57:14.459Z,37.88
2018-07-09T18:59:42.123Z,37.70
2018-07-09T19:02:09.809Z,37.80
2018-07-09T19:04:38.042Z,38.32
2018-07-09T19:07:08.133Z,38.34
2018-07-09T19:09:36.479Z,38.71
2018-07-09T19:12:04.881Z,38.65
2018-07-09T19:14:34.998Z,39.08
2018-07-09T19:18:14.414Z,38.69
2018-07-09T19:21:16.761Z,39.30
2018-07-09T19:23:43.958Z,39.04
2018-07-09T19:26:11.120Z,38.98
2018-07-09T19:28:38.271Z,39.24
2018-07-09T19:31:05.331Z,39.13
2018-07-09T19:33:32.525Z,38.70
2018-07-09T19:35:59.694Z,39.22
2018-07-09T19:38:26.868Z,39.05
2018-07-09T19:40:56.183Z,39.44
2018-07-09T19:43:23.349Z,39.24
2018-07-09T19:45:50.737Z,38.99
2018-07-09T19:48:17.844Z,39.47
2018-07-09T19:50:45.406Z,39.53
2018-07-09T19:53:12.649Z,39.35
2018-07-09T19:55:40.346Z,39.29
2018-07-09T19:58:07.548Z,39.95
2018-07-09T20:00:35.557Z,40.11
2018-07-09T20:03:03.213Z,40.33
2018-07-09T20:05:31.743Z,40.18
2018-07-09T20:07:59.130Z,41.17
2018-07-09T20:10:31.955Z,41.52
2018-07-09T20:13:03.925Z,42.05
2018-07-09T20:15:36.729Z,42.27
2018-07-09T20:18:05.220Z,41.82
2018-07-09T20:20:33.470Z,42.27
2018-07-09T20:23:00.619Z,41.94
2018-07-09T20:25:28.746Z,42.31
2018-07-09T20:27:55.903Z,41.87
2018-07-09T20:30:23.953Z,42.13
2018-07-09T20:32:51.060Z,42.29
2018-07-09T20:35:18.211Z,42.38
2018-07-09T20:37:45.392Z,42.20
2018-07-09T20:40:12.664Z,42.40
2018-07-09T20:42:39.782Z,42.14
2018-07-09T20:45:06.945Z,42.73
2018-07-09T20:47:34.269Z,43.00
2018-07-09T20:50:01.479Z,42.40
2018-07-09T20:52:28.735Z,42.26
2018-07-09T20:54:55.898Z,42.08
2018-07-09T20:57:23.108Z,42.24
2018-07-09T20:59:51.163Z,41.78
2018-07-09T21:02:18.363Z,41.89
2018-07-09T21:04:45.583Z,42.50
2018-07-09T21:07:12.662Z,42.27
2018-07-09T21:09:39.771Z,42.10
2018-07-09T21:12:09.202Z,42.33
2018-07-09T21:14:36.290Z,42.86
2018-07-09T21:17:03.356Z,42.30
2018-07-09T21:19:30.426Z,43.07
2018-07-09T21:21:57.855Z,43.75
2018-07-09T21:24:24.956Z,42.75
2018-07-09T21:26:52.082Z,42.62
2018-07-09T21:29:19.231Z,41.76
2018-07-09T21:31:46.370Z,41.93
2018-07-09T21:34:13.476Z,42.26
2018-07-09T21:36:41.167Z,42.17
2018-07-09T21:39:08.299Z,42.66
2018-07-09T21:41:35.378Z,42.42
2018-07-09T21:44:02.470Z,41.69
2018-07-09T21:46:29.545Z,41.92
2018-07-09T21:48:56.622Z,41.62
2018-07-09T21:51:23.709Z,41.40
2018-07-09T21:53:50.778Z,41.94
2018-07-09T21:56:17.970Z,41.85
2018-07-09T21:58:45.036Z,41.94
2018-07-09T22:01:12.215Z,42.35
2018-07-09T22:03:39.210Z,41.99
2018-07-09T22:06:06.288Z,41.79
2018-07-09T22:08:33.393Z,42.59
2018-07-09T22:11:00.596Z,43.08
2018-07-09T22:13:27.678Z,42.98
2018-07-09T22:15:54.809Z,42.82
2018-07-09T22:18:21.867Z,43.13
2018-07-09T22:20:48.942Z,43.12
2018-07-09T22:23:16.046Z,43.84
2018-07-09T22:25:43.132Z,43.83
2018-07-09T22:28:10.214Z,44.38
2018-07-09T22:30:37.870Z,44.34
2018-07-09T22:33:05.528Z,44.26
2018-07-09T22:35:33.175Z,44.68
2018-07-09T22:38:00.806Z,44.69
2018-07-09T22:40:28.438Z,44.95
2018-07-09T22:42:56.182Z,45.16
2018-07-09T22:45:23.829Z,45.10
2018-07-09T22:47:51.503Z,46.00
2018-07-09T22:50:19.138Z,45.08
2018-07-09T22:52:46.759Z,46.29
2018-07-09T22:55:20.706Z,46.95
2018-07-09T22:57:48.350Z,46.17
2018-07-09T23:00:17.014Z,47.37
2018-07-09T23:02:46.178Z,47.48
2018-07-09T23:05:13.920Z,47.24
2018-07-09T23:07:41.644Z,47.93
2018-07-09T23:10:15.074Z,47.43
2018-07-09T23:13:15.743Z,47.99
2018-07-09T23:15:49.799Z,47.55
2018-07-09T23:18:23.298Z,47.75
2018-07-09T23:20:56.530Z,47.38
2018-07-09T23:23:23.701Z,48.23
2018-07-09T23:25:50.855Z,48.28
2018-07-09T23:28:18.019Z,47.51
2018-07-09T23:30:45.171Z,47.88
2018-07-09T23:33:12.315Z,48.69
2018-07-09T23:35:39.470Z,49.25
2018-07-09T23:38:06.699Z,49.24
2018-07-09T23:40:33.834Z,49.06
2018-07-09T23:43:00.994Z,49.75
2018-07-09T23:45:28.142Z,50.03
2018-07-09T23:47:55.354Z,49.31
2018-07-09T23:50:22.486Z,50.31
2018-07-09T23:52:49.642Z,50.00
2018-07-09T23:55:16.768Z,49.08
2018-07-09T23:57:53.990Z,49.35
